Station: Maningrida Airport

  Atmospheric Gas Attenuation - ITU Rec 676-11   --------------- db/100km ---------------
Date Time Temp RH % AH g/m3 Dew Point Wind Direction Speed kph Gust kph Barometer mB Rainfall Since 9am 24GHz 47GHz 76GHz 122GHz 134GHz 241GHz
07 06:40 21 92 16.85 19.6 0 0 1011.3 0 36.8 37.7 70.8 187.2 202.7 703.5
07 06:30 21 91 16.67 19.5 0 6 1011.1 0 36.4 37.4 69.9 184.9 199.9 693.7
07 06:20 21.5 92 17.35 20.1 6 6 1011 0 37.8 38.4 72.7 192.2 209.1 725.5
07 06:10 21.7 93 17.74 20.5 4 6 1010.9 0 38.6 39.1 74.4 196.6 214.6 744.7
07 06:00 22 93 18.05 20.8 6 7 1010.8 0 39.3 39.5 75.5 199.8 218.5 758.6
07 05:50 22.2 93 18.26 21 6 7 1010.7 0 39.7 39.9 76.3 201.9 221.2 768.0
07 05:40 22.2 93 18.26 21 6 6 1010.6 0 39.7 39.8 76.3 201.9 221.2 768.0
07 05:30 22.4 94 18.67 21.4 4 7 1010.6 0 40.5 40.5 78.1 206.7 227.1 788.4
07 05:20 22.2 93 18.26 21 4 6 1010.6 0 39.7 39.8 76.3 201.9 221.2 768.0
07 05:10 22.4 94 18.67 21.4 6 6 1010.5 0 40.5 40.5 78.1 206.6 227.1 788.4
07 04:50 22.3 93 18.36 21.1 4 7 1010.4 0 39.9 40.0 76.7 202.9 222.5 772.3
07 04:40 22.4 94 18.67 21.4 4 6 1010.4 0 40.5 40.5 78.1 206.6 227.1 788.3
07 04:30 22.3 94 18.56 21.3 6 9 1010.3 0 40.3 40.4 77.7 205.5 225.6 783.3
07 04:20 22.1 93 18.15 20.9 6 9 1010.2 0 39.5 39.7 75.9 200.7 219.7 762.7
07 04:10 22.2 93 18.26 21 6 6 1010.1 0 39.7 39.8 76.3 201.8 221.1 767.7
07 04:00 22.3 93 18.36 21.1 6 7 1010.1 0 39.9 40.0 76.7 202.8 222.4 772.2
07 03:50 22.4 93 18.47 21.2 6 7 1010.1 0 40.1 40.1 77.1 204.0 223.9 777.2
07 03:40 22.5 93 18.57 21.3 6 7 1010.1 0 40.3 40.3 77.5 205.0 225.1 781.6
07 03:30 22.5 93 18.57 21.3 6 9 1010.1 0 40.3 40.3 77.5 205.0 225.1 781.6
07 03:20 22.5 93 18.57 21.3 7 7 1010.1 0 40.3 40.3 77.5 205.0 225.1 781.6
07 03:10 22.5 93 18.57 21.3 7 9 1010.2 0 40.3 40.3 77.5 205.0 225.1 781.7
07 03:00 22.5 93 18.57 21.3 7 9 1010.4 0 40.3 40.3 77.5 205.1 225.2 781.8
07 02:50 22.7 92 18.59 21.3 6 7 1010.5 0 40.3 40.2 77.4 204.8 224.9 780.9
07 02:40 22.7 92 18.59 21.3 6 7 1010.5 0 40.3 40.2 77.4 204.8 224.9 780.9
07 02:30 22.9 92 18.8 21.5 6 9 1010.5 0 40.8 40.6 78.2 206.9 227.6 790.3
07 02:20 22.9 92 18.8 21.5 6 6 1010.6 0 40.8 40.6 78.2 207.0 227.6 790.4
07 02:10 22.9 92 18.8 21.5 6 7 1010.6 0 40.8 40.6 78.2 207.0 227.6 790.4
07 02:00 22.9 91 18.6 21.4 6 9 1010.6 0 40.3 40.2 77.3 204.4 224.5 779.4
07 01:50 23 91 18.7 21.4 6 6 1010.7 0 40.5 40.3 77.6 205.4 225.8 783.9
07 01:40 23.1 91 18.81 21.5 6 7 1010.9 0 40.8 40.5 78.1 206.6 227.2 789.0
07 01:30 23.1 90 18.6 21.4 6 9 1011 0 40.3 40.1 77.1 203.9 223.9 777.5
07 01:20 23.2 89 18.5 21.3 6 6 1011 0 40.1 39.9 76.5 202.4 222.1 771.0
07 01:10 23.5 89 18.82 21.6 6 7 1011.1 0 40.7 40.3 77.7 205.6 226.2 785.4
07 01:00 23.6 88 18.72 21.5 6 9 1011.2 0 40.5 40.1 77.2 204.1 224.3 779.0
07 00:50 23.8 88 18.93 21.7 7 7 1011.3 0 41.0 40.4 78.0 206.3 227.0 788.4
07 00:40 23.9 87 18.82 21.6 7 9 1011.3 0 40.7 40.1 77.3 204.6 225.0 781.4
07 00:30 24.1 87 19.03 21.8 9 13 1011.3 0 41.1 40.4 78.1 206.7 227.7 790.7
07 00:20 24.2 86 18.92 21.7 11 11 1011.4 0 40.9 40.2 77.5 205.1 225.7 783.7
07 00:10 24.3 85 18.81 21.6 11 13 1011.5 0 40.6 39.9 76.9 203.4 223.7 776.8
07 00:00 24.3 84 18.59 21.4 13 19 1011.5 0 40.2 39.5 75.8 200.6 220.3 765.0
06 23:50 24.3 85 18.81 21.6 13 15 1011.4 0 40.6 39.9 76.9 203.4 223.7 776.7
06 23:40 24.3 85 18.81 21.6 17 19 1011.4 0 40.6 39.9 76.9 203.4 223.7 776.7
06 23:30 24.4 85 18.92 21.7 15 19 1011.5 0 40.9 40.1 77.3 204.5 225.1 781.7
06 23:20 24.4 85 18.92 21.7 15 19 1011.7 0 40.9 40.1 77.3 204.6 225.1 781.8
06 23:10 24.4 86 19.14 21.9 15 17 1011.7 0 41.3 40.5 78.4 207.4 228.5 793.7
06 23:00 24.4 86 19.14 21.9 13 20 1011.7 0 41.3 40.5 78.4 207.4 228.5 793.7
06 22:50 24.4 85 18.92 21.7 13 15 1011.6 0 40.9 40.1 77.3 204.5 225.1 781.8
06 22:40 24.4 84 18.69 21.5 15 17 1011.7 0 40.4 39.7 76.2 201.7 221.5 769.4
06 22:30 24.5 84 18.8 21.6 15 22 1011.8 0 40.6 39.8 76.7 202.8 223.0 774.4
06 22:20 24.5 84 18.8 21.6 17 17 1011.6 0 40.6 39.8 76.6 202.8 222.9 774.2
06 22:10 24.5 84 18.8 21.6 17 17 1011.5 0 40.6 39.8 76.6 202.7 222.9 774.2
06 22:00 24.5 83 18.58 21.4 15 20 1011.5 0 40.1 39.4 75.6 200.0 219.5 762.4
06 21:50 24.6 83 18.68 21.5 15 17 1011.5 0 40.3 39.5 76.0 201.0 220.8 766.7
06 21:40 24.6 83 18.68 21.5 17 19 1011.5 0 40.3 39.5 76.0 201.0 220.8 766.7
06 21:30 24.6 82 18.46 21.3 17 24 1011.3 0 39.9 39.1 74.9 198.2 217.4 754.9
06 21:20 24.5 83 18.58 21.4 15 17 1011.2 0 40.1 39.4 75.6 199.9 219.5 762.2
06 21:10 24.6 83 18.68 21.5 17 19 1011.1 0 40.3 39.5 75.9 200.9 220.7 766.5
06 21:00 24.6 83 18.68 21.5 17 20 1011 0 40.3 39.5 75.9 200.9 220.7 766.5
06 20:50 24.7 82 18.56 21.4 17 19 1011 0 40.1 39.3 75.3 199.1 218.6 759.0
06 20:40 24.7 82 18.56 21.4 19 20 1010.8 0 40.1 39.2 75.3 199.1 218.5 758.9
06 20:30 24.7 82 18.56 21.4 17 20 1010.7 0 40.1 39.2 75.3 199.1 218.5 758.9
06 20:20 24.7 83 18.79 21.6 13 17 1010.6 0 40.6 39.7 76.3 201.9 222.0 771.1
06 20:10 24.7 82 18.56 21.4 17 20 1010.5 0 40.1 39.2 75.2 199.1 218.5 758.8
06 20:00 24.7 82 18.56 21.4 17 24 1010.4 0 40.1 39.2 75.2 199.0 218.5 758.7
06 19:50 24.8 82 18.66 21.5 15 17 1010.2 0 40.3 39.4 75.6 200.0 219.7 763.0
06 19:40 24.8 82 18.66 21.5 17 19 1010 0 40.3 39.4 75.6 200.0 219.6 762.9
06 19:30 24.8 81 18.44 21.3 15 19 1009.9 0 39.8 38.9 74.5 197.2 216.3 751.1
06 19:20 24.8 80 18.21 21.1 15 19 1009.8 0 39.3 38.5 73.5 194.3 212.8 738.9
06 19:10 24.9 80 18.31 21.2 15 17 1009.6 0 39.5 38.6 73.8 195.3 214.0 743.1
06 19:00 25 79 18.19 21.1 15 19 1009.5 0 39.3 38.4 73.2 193.5 211.8 735.7
06 18:50 24.9 79 18.08 21 11 13 1009.5 0 39.0 38.2 72.8 192.4 210.5 730.9
06 18:40 25 79 18.19 21.1 13 17 1009.5 0 39.3 38.4 73.2 193.5 211.8 735.7
06 18:30 25.2 78 18.16 21.1 13 17 1009.4 0 39.2 38.2 72.8 192.6 210.8 732.2
06 18:20 25.3 77 18.03 21 15 17 1009.3 0 38.9 37.9 72.1 190.8 208.6 724.4
06 18:10 25.5 75 17.76 20.7 17 19 1009.3 0 38.3 37.3 70.7 187.0 204.0 708.5
06 18:00 25.7 74 17.72 20.7 17 20 1009.2 0 38.2 37.2 70.3 186.0 202.8 704.5
06 17:50 26 73 17.77 20.8 17 20 1009.1 0 38.3 37.1 70.3 185.9 202.8 704.3
06 17:40 26.2 73 17.97 21 17 17 1009.1 0 38.7 37.4 71.0 187.8 205.2 712.7
06 17:30 26.3 71 17.58 20.6 15 22 1009 0 37.8 36.6 69.1 182.9 199.2 691.8
06 17:20 26.6 69 17.37 20.4 17 19 1008.9 0 37.4 36.1 67.9 179.7 195.3 678.5
06 17:10 26.8 69 17.56 20.6 17 20 1008.9 0 37.8 36.4 68.6 181.4 197.5 686.2
06 17:00 26.7 69 17.47 20.5 19 24 1008.9 0 37.6 36.3 68.3 180.6 196.5 682.6
06 16:50 27.5 68 17.99 21.1 17 22 1008.9 0 38.6 36.9 69.9 184.8 201.9 701.6
06 16:40 27.3 69 18.06 21.1 19 22 1009 0 38.8 37.1 70.4 186.2 203.5 707.0
06 16:30 26.9 70 17.92 21 20 26 1008.9 0 38.5 37.0 70.1 185.5 202.5 703.5
06 16:20 27.2 68 17.7 20.8 24 26 1008.9 0 38.0 36.5 68.9 182.1 198.5 689.7
06 16:10 27.8 67 18.02 21.1 20 24 1008.7 0 38.6 36.8 69.7 184.5 201.5 700.3
06 16:00 27.7 66 17.66 20.8 20 28 1008.7 0 37.9 36.2 68.2 180.5 196.6 683.1
06 15:50 27.6 67 17.83 20.9 22 28 1008.7 0 38.2 36.5 69.1 182.7 199.3 692.5
06 15:40 27.8 66 17.75 20.9 22 24 1008.7 0 38.1 36.3 68.5 181.3 197.6 686.7
06 15:30 28.2 63 17.32 20.7 22 30 1008.7 0 37.1 35.4 66.3 175.4 190.5 662.0
06 15:20 28 65 17.68 20.8 19 22 1008.8 0 37.9 36.1 68.1 180.0 196.1 681.5
06 15:10 28.2 63 17.32 20.7 20 24 1008.8 0 37.1 35.4 66.3 175.4 190.5 662.0
06 15:00 27.6 64 17.03 20.2 24 30 1008.9 0 36.6 35.1 65.6 173.4 187.9 652.9
06 14:50 28.1 62 16.95 20.1 19 22 1009 0 36.3 34.8 64.8 171.4 185.6 644.9
06 14:40 28.8 59 16.77 20 20 24 1009.1 0 35.9 34.2 63.5 167.9 181.4 630.4
06 14:30 28.4 59 16.4 19.6 20 26 1009.2 0 35.2 33.7 62.3 164.6 177.3 616.0
06 14:20 29.1 53 15.31 18.8 20 24 1009.2 0 32.8 31.7 57.3 151.3 161.1 559.6
06 14:10 28.9 53 15.14 18.4 20 24 1009.3 0 32.5 31.5 56.7 149.8 159.3 553.3
06 14:00 29.6 55 16.32 19.6 19 24 1009.4 0 34.9 33.1 61.0 161.3 173.5 602.9

Last Refresh: 07-Aug-2020 06:47:35

Most of the information presented on this site is sourced from the Bureau of Meteorology.  Copyright in all material sourced from the Bureau of Meteorology resides with the Commonwealth of Australia.